Terminal Aerodrome Forecast
Issued by NWS Springfield, MO

Home | Current Version | Previous Version | Text Only | Print | Product List | Glossary On
Versions: 1 2 3 4 5 6 7 8 9 10 11 12 13 14 15 16 17 18
000
FTUS43 KSGF 221700
TAFSGF
TAF
KSGF 221720Z 2218/2318 01010KT P6SM SCT100 BKN250
     FM230200 05006KT P6SM FEW100
     FM230700 11008KT P6SM SCT050 OVC100 PROB30 2310/2314 5SM -SHRA
      BR OVC050=

USA.gov is the U.S. government's official web portal to all federal, state and local government web resources and services.